Time;durP1;ratioP1;P1;durP2;ratioP2;P2;SDS_P1;SDS_P2;PMS_P1;PMS_P2;Temp;Humidity;BMP_temperature;BMP_pressure;BME280_temperature;BME280_humidity;BME280_pressure;Samples;Min_cycle;Max_cycle;Signal;HPM_P1;HPM_P2
2022/08/09 00:02:15;;;;;;;3.07;2.87;;;;;;;;;;5113295;28;20446;-59
2022/08/09 00:04:44;;;;;;;3.77;3.17;;;;;;;;;;5113616;28;20424;-59
2022/08/09 00:07:11;;;;;;;2.90;2.70;;;;;;;;;;5113536;28;20567;-59
2022/08/09 00:09:38;;;;;;;2.70;2.60;;;;;;;;;;5113558;28;20430;-59
2022/08/09 00:12:05;;;;;;;3.57;3.30;;;;;;;;;;5113284;28;20452;-59
2022/08/09 00:14:32;;;;;;;3.40;3.10;;;;;;;;;;5113204;28;20445;-59
2022/08/09 00:16:59;;;;;;;3.00;2.80;;;;;;;;;;5113117;28;20536;-59
2022/08/09 00:19:26;;;;;;;3.10;2.90;;;;;;;;;;5113386;28;20928;-59
2022/08/09 00:21:54;;;;;;;2.93;2.73;;;;;;;;;;5113267;28;20451;-59
2022/08/09 00:24:21;;;;;;;3.73;3.07;;;;;;;;;;5113175;28;20452;-59
2022/08/09 00:26:48;;;;;;;3.60;3.13;;;;;;;;;;5113128;28;20477;-59
2022/08/09 00:29:15;;;;;;;3.70;2.97;;;;;;;;;;5113121;28;20458;-60
2022/08/09 00:31:42;;;;;;;3.17;2.97;;;;;;;;;;5112956;28;20951;-60
2022/08/09 00:34:09;;;;;;;3.47;3.00;;;;;;;;;;5113137;28;20453;-60
2022/08/09 00:36:36;;;;;;;3.10;2.60;;;;;;;;;;5113183;28;20472;-60
2022/08/09 00:39:04;;;;;;;3.47;3.00;;;;;;;;;;5116091;28;20451;-60
2022/08/09 00:41:31;;;;;;;4.87;3.33;;;;;;;;;;5117026;28;20452;-59
2022/08/09 00:43:58;;;;;;;3.03;2.83;;;;;;;;;;5116864;28;20427;-59
2022/08/09 00:46:25;;;;;;;3.37;2.83;;;;;;;;;;5117072;28;20833;-59
2022/08/09 00:48:52;;;;;;;4.47;3.50;;;;;;;;;;5116716;28;20478;-59
2022/08/09 00:51:19;;;;;;;3.10;2.90;;;;;;;;;;5117015;28;20449;-59
2022/08/09 00:53:46;;;;;;;3.57;3.27;;;;;;;;;;5116788;28;20471;-59
2022/08/09 00:56:15;;;;;;;2.97;2.67;;;;;;;;;;5116785;28;20540;-59
2022/08/09 00:58:42;;;;;;;5.03;3.00;;;;;;;;;;5116700;28;20881;-59
2022/08/09 01:01:12;;;;;;;4.33;3.50;;;;;;;;;;5116944;28;21013;-60
2022/08/09 01:03:42;;;;;;;9.17;3.23;;;;;;;;;;5116811;28;20452;-59
2022/08/09 01:06:12;;;;;;;4.10;3.80;;;;;;;;;;5116612;28;20828;-59
2022/08/09 01:08:42;;;;;;;3.27;3.00;;;;;;;;;;5116562;28;20450;-59
2022/08/09 01:11:17;;;;;;;4.63;3.73;;;;;;;;;;5116449;28;20449;-59
2022/08/09 01:13:50;;;;;;;3.70;3.40;;;;;;;;;;5116365;28;20963;-59
2022/08/09 01:16:17;;;;;;;5.67;3.00;;;;;;;;;;5116517;28;20489;-59
2022/08/09 01:18:46;;;;;;;3.30;3.00;;;;;;;;;;5116374;28;20960;-59
2022/08/09 01:21:20;;;;;;;3.33;3.03;;;;;;;;;;5116382;28;20545;-59
2022/08/09 01:23:54;;;;;;;8.40;3.43;;;;;;;;;;5116247;28;20912;-59
2022/08/09 01:26:26;;;;;;;13.10;3.50;;;;;;;;;;5116363;28;20867;-59
2022/08/09 01:28:55;;;;;;;4.53;3.13;;;;;;;;;;5116416;28;20449;-59
2022/08/09 01:31:23;;;;;;;3.80;3.20;;;;;;;;;;5116192;28;20518;-59
2022/08/09 01:33:50;;;;;;;3.53;3.23;;;;;;;;;;5116052;28;20446;-60
2022/08/09 01:36:18;;;;;;;3.87;3.27;;;;;;;;;;5116023;28;20454;-59
2022/08/09 01:38:46;;;;;;;3.60;2.60;;;;;;;;;;5116142;28;20420;-59
2022/08/09 01:41:14;;;;;;;7.37;3.30;;;;;;;;;;5116069;28;20472;-59
2022/08/09 01:43:42;;;;;;;3.40;3.20;;;;;;;;;;5115924;28;20449;-59
2022/08/09 01:46:11;;;;;;;3.23;2.90;;;;;;;;;;5115668;28;20975;-59
2022/08/09 01:48:39;;;;;;;4.60;3.10;;;;;;;;;;5115512;28;20478;-59
2022/08/09 01:51:06;;;;;;;3.87;3.33;;;;;;;;;;5115107;28;20446;-59
2022/08/09 01:53:34;;;;;;;3.80;2.77;;;;;;;;;;5115802;28;20537;-59
2022/08/09 01:56:02;;;;;;;4.00;3.40;;;;;;;;;;5116107;28;20452;-59
2022/08/09 01:58:29;;;;;;;4.53;3.50;;;;;;;;;;5115680;28;20941;-59
2022/08/09 02:00:57;;;;;;;4.63;3.67;;;;;;;;;;5115537;28;20452;-59
2022/08/09 02:03:25;;;;;;;8.37;3.30;;;;;;;;;;5115433;28;20933;-59
2022/08/09 02:05:54;;;;;;;3.30;3.10;;;;;;;;;;5115530;28;20445;-59
2022/08/09 02:08:21;;;;;;;3.70;2.73;;;;;;;;;;5115437;28;20940;-59
2022/08/09 02:10:50;;;;;;;4.43;3.30;;;;;;;;;;5115424;28;20445;-59
2022/08/09 02:13:17;;;;;;;5.77;3.40;;;;;;;;;;5115196;28;20915;-59
2022/08/09 02:15:47;;;;;;;4.10;3.70;;;;;;;;;;5115226;28;20467;-59
2022/08/09 02:18:14;;;;;;;3.60;3.40;;;;;;;;;;5115366;28;20924;-59
2022/08/09 02:20:45;;;;;;;3.30;3.00;;;;;;;;;;5115457;28;20511;-60
2022/08/09 02:23:14;;;;;;;6.40;3.37;;;;;;;;;;5115481;28;20450;-59
2022/08/09 02:25:42;;;;;;;3.47;3.17;;;;;;;;;;5115315;28;20850;-59
2022/08/09 02:28:10;;;;;;;3.20;3.00;;;;;;;;;;5115143;28;20590;-59
2022/08/09 02:30:40;;;;;;;3.47;3.17;;;;;;;;;;5115251;28;20967;-59
2022/08/09 02:33:07;;;;;;;3.60;3.37;;;;;;;;;;5115293;28;20540;-59
2022/08/09 02:35:35;;;;;;;5.43;3.30;;;;;;;;;;5115017;28;20449;-59
2022/08/09 02:38:04;;;;;;;7.20;3.97;;;;;;;;;;5114936;28;20449;-59
2022/08/09 02:40:31;;;;;;;4.93;2.97;;;;;;;;;;5114776;28;20790;-60
2022/08/09 02:43:01;;;;;;;3.50;3.10;;;;;;;;;;5114572;28;20445;-59
2022/08/09 02:45:30;;;;;;;4.60;3.30;;;;;;;;;;5115058;28;20445;-59
2022/08/09 02:47:59;;;;;;;4.50;3.87;;;;;;;;;;5114495;28;20496;-59
2022/08/09 02:50:27;;;;;;;8.63;3.30;;;;;;;;;;5114645;28;20512;-59
2022/08/09 02:52:55;;;;;;;7.03;3.07;;;;;;;;;;5114492;28;20532;-59
2022/08/09 02:55:24;;;;;;;3.33;3.03;;;;;;;;;;5114468;28;20874;-59
2022/08/09 02:57:52;;;;;;;3.87;3.10;;;;;;;;;;5114407;28;21043;-60
2022/08/09 03:00:19;;;;;;;6.80;3.70;;;;;;;;;;5114221;28;20968;-59
2022/08/09 03:02:49;;;;;;;4.70;3.40;;;;;;;;;;5114405;28;20445;-59
2022/08/09 03:05:16;;;;;;;3.83;2.83;;;;;;;;;;5114328;28;20813;-59
2022/08/09 03:07:44;;;;;;;3.57;2.80;;;;;;;;;;5114143;28;20844;-60
2022/08/09 03:10:11;;;;;;;4.20;3.73;;;;;;;;;;5114495;28;20442;-59
2022/08/09 03:12:40;;;;;;;6.30;3.63;;;;;;;;;;5114344;28;20934;-59
2022/08/09 03:15:08;;;;;;;3.43;3.00;;;;;;;;;;5114246;28;20479;-59
2022/08/09 03:17:35;;;;;;;4.50;3.57;;;;;;;;;;5114152;28;20481;-59
2022/08/09 03:20:02;;;;;;;11.90;4.33;;;;;;;;;;5114036;28;21094;-59
2022/08/09 03:22:30;;;;;;;4.30;3.90;;;;;;;;;;5113983;28;20525;-59
2022/08/09 03:24:57;;;;;;;6.20;3.90;;;;;;;;;;5114185;28;20452;-59
2022/08/09 03:27:24;;;;;;;6.33;3.93;;;;;;;;;;5113938;28;20480;-59
2022/08/09 03:29:53;;;;;;;4.17;3.67;;;;;;;;;;5114291;28;20441;-59
2022/08/09 03:32:20;;;;;;;3.87;3.50;;;;;;;;;;5113803;28;20770;-59
2022/08/09 03:34:47;;;;;;;4.40;3.27;;;;;;;;;;5113706;28;20446;-59
2022/08/09 03:37:14;;;;;;;3.70;3.30;;;;;;;;;;5113980;28;20445;-59
2022/08/09 03:39:41;;;;;;;3.50;3.30;;;;;;;;;;5113822;28;20437;-59
2022/08/09 03:42:08;;;;;;;3.40;3.10;;;;;;;;;;5113723;28;20448;-59
2022/08/09 03:44:35;;;;;;;3.77;3.40;;;;;;;;;;5113603;28;20448;-59
2022/08/09 03:47:03;;;;;;;3.80;3.60;;;;;;;;;;5113343;28;20480;-59
2022/08/09 03:49:31;;;;;;;3.37;3.03;;;;;;;;;;5113559;28;20450;-59
2022/08/09 03:51:59;;;;;;;3.97;3.40;;;;;;;;;;5113457;28;20928;-60
2022/08/09 03:54:27;;;;;;;3.53;3.13;;;;;;;;;;5113530;28;20533;-59
2022/08/09 03:56:54;;;;;;;4.43;3.83;;;;;;;;;;5113533;28;20445;-59
2022/08/09 03:59:21;;;;;;;6.27;4.27;;;;;;;;;;5113428;28;20452;-59
2022/08/09 04:01:49;;;;;;;3.67;3.30;;;;;;;;;;5113296;28;20449;-60
2022/08/09 04:04:18;;;;;;;5.90;3.40;;;;;;;;;;5113182;28;20452;-59
2022/08/09 04:06:45;;;;;;;3.27;2.97;;;;;;;;;;5113389;28;20808;-59
2022/08/09 04:09:12;;;;;;;5.23;3.70;;;;;;;;;;5113357;28;20451;-59
2022/08/09 04:11:48;;;;;;;3.67;3.37;;;;;;;;;;5113356;28;20446;-59
2022/08/09 04:14:15;;;;;;;5.30;3.40;;;;;;;;;;5112782;28;20544;-60
2022/08/09 04:16:41;;;;;;;4.57;4.07;;;;;;;;;;5113218;28;20853;-59
2022/08/09 04:19:08;;;;;;;3.33;3.10;;;;;;;;;;5113370;28;20544;-59
2022/08/09 04:21:37;;;;;;;4.33;3.67;;;;;;;;;;5113142;28;20452;-59
2022/08/09 04:24:04;;;;;;;4.77;4.30;;;;;;;;;;5113096;28;20445;-59
2022/08/09 04:26:31;;;;;;;5.40;3.90;;;;;;;;;;5113112;28;20446;-59
2022/08/09 04:28:58;;;;;;;3.30;3.00;;;;;;;;;;5112891;28;20484;-59
2022/08/09 04:31:25;;;;;;;4.27;3.53;;;;;;;;;;5113200;28;20452;-59
2022/08/09 04:33:52;;;;;;;4.87;3.60;;;;;;;;;;5113170;28;20524;-59
2022/08/09 04:36:19;;;;;;;3.70;3.40;;;;;;;;;;5113104;28;20552;-59
2022/08/09 04:38:47;;;;;;;5.80;4.03;;;;;;;;;;5113125;28;20460;-59
2022/08/09 04:41:14;;;;;;;5.90;3.40;;;;;;;;;;5112975;28;20456;-59
2022/08/09 04:43:41;;;;;;;3.90;3.60;;;;;;;;;;5112732;28;20452;-59
2022/08/09 04:46:10;;;;;;;3.30;3.10;;;;;;;;;;5113072;28;20477;-60
2022/08/09 04:48:36;;;;;;;3.33;3.13;;;;;;;;;;5112583;28;20456;-59
2022/08/09 04:51:03;;;;;;;4.93;3.23;;;;;;;;;;5112938;28;20445;-59
2022/08/09 04:53:30;;;;;;;3.90;3.60;;;;;;;;;;5112907;28;20424;-59
2022/08/09 04:55:59;;;;;;;3.67;3.37;;;;;;;;;;5112862;28;20475;-59
2022/08/09 04:58:26;;;;;;;4.50;3.90;;;;;;;;;;5112828;28;20937;-59
2022/08/09 05:00:54;;;;;;;4.80;4.00;;;;;;;;;;5112941;28;20537;-59
2022/08/09 05:03:21;;;;;;;6.93;3.60;;;;;;;;;;5112827;28;20503;-59
2022/08/09 05:05:47;;;;;;;5.37;3.87;;;;;;;;;;5112841;28;20475;-59
2022/08/09 05:08:14;;;;;;;7.30;3.80;;;;;;;;;;5112587;28;20481;-59
2022/08/09 05:10:41;;;;;;;3.73;3.37;;;;;;;;;;5112774;28;20424;-59
2022/08/09 05:13:10;;;;;;;9.13;3.70;;;;;;;;;;5112748;28;20456;-59
2022/08/09 05:15:37;;;;;;;5.60;3.80;;;;;;;;;;5112780;28;20875;-59
2022/08/09 05:18:04;;;;;;;4.67;4.07;;;;;;;;;;5112707;28;20420;-59
2022/08/09 05:20:31;;;;;;;3.93;3.60;;;;;;;;;;5112629;28;20456;-59
2022/08/09 05:22:58;;;;;;;5.90;3.30;;;;;;;;;;5112475;28;20473;-59
2022/08/09 05:25:25;;;;;;;4.33;3.70;;;;;;;;;;5114358;28;20445;-59
2022/08/09 05:27:52;;;;;;;6.07;3.93;;;;;;;;;;5116360;28;20483;-59
2022/08/09 05:30:21;;;;;;;3.90;3.50;;;;;;;;;;5116266;28;20496;-59
2022/08/09 05:32:48;;;;;;;9.30;4.00;;;;;;;;;;5116471;28;20452;-59
2022/08/09 05:35:15;;;;;;;6.63;3.37;;;;;;;;;;5116044;28;20503;-60
2022/08/09 05:37:41;;;;;;;7.27;3.10;;;;;;;;;;5116014;28;20537;-59
2022/08/09 05:40:09;;;;;;;4.53;4.10;;;;;;;;;;5116247;28;20869;-59
2022/08/09 05:42:36;;;;;;;4.67;3.73;;;;;;;;;;5116006;28;20457;-59
2022/08/09 05:45:04;;;;;;;6.03;3.73;;;;;;;;;;5116040;28;20796;-59
2022/08/09 05:47:32;;;;;;;3.80;3.50;;;;;;;;;;5115609;28;20488;-59
2022/08/09 05:49:59;;;;;;;4.60;4.30;;;;;;;;;;5115766;28;20544;-59
2022/08/09 05:52:26;;;;;;;3.50;3.20;;;;;;;;;;5115658;28;20790;-59
2022/08/09 05:54:54;;;;;;;7.13;3.20;;;;;;;;;;5115831;28;20445;-59
2022/08/09 05:57:20;;;;;;;6.00;3.30;;;;;;;;;;5115652;28;20424;-59
2022/08/09 05:59:47;;;;;;;6.83;3.60;;;;;;;;;;5115620;28;20445;-59
2022/08/09 06:02:14;;;;;;;3.83;3.43;;;;;;;;;;5115574;28;20463;-59
2022/08/09 06:04:43;;;;;;;3.83;3.53;;;;;;;;;;5115353;28;20448;-59
2022/08/09 06:07:10;;;;;;;4.13;3.70;;;;;;;;;;5115529;28;20444;-59
2022/08/09 06:09:37;;;;;;;6.10;3.57;;;;;;;;;;5115547;28;20469;-59
2022/08/09 06:12:04;;;;;;;6.50;3.90;;;;;;;;;;5115612;28;20790;-59
2022/08/09 06:14:31;;;;;;;5.60;3.77;;;;;;;;;;5115379;28;20446;-59
2022/08/09 06:16:58;;;;;;;3.97;3.67;;;;;;;;;;5115319;28;20499;-59
2022/08/09 06:19:25;;;;;;;3.80;3.60;;;;;;;;;;5115256;28;20449;-59
2022/08/09 06:21:53;;;;;;;3.77;3.03;;;;;;;;;;5115415;28;20450;-59
2022/08/09 06:24:20;;;;;;;3.97;3.67;;;;;;;;;;5115112;28;20477;-59
2022/08/09 06:26:47;;;;;;;4.03;3.73;;;;;;;;;;5115237;28;20506;-59
2022/08/09 06:29:14;;;;;;;4.33;3.93;;;;;;;;;;5114887;28;20481;-59
2022/08/09 06:31:41;;;;;;;4.60;3.60;;;;;;;;;;5114929;28;20808;-59
2022/08/09 06:34:08;;;;;;;7.70;4.40;;;;;;;;;;5114740;28;20503;-59
2022/08/09 06:36:35;;;;;;;5.03;3.27;;;;;;;;;;5114531;28;20481;-59
2022/08/09 06:39:04;;;;;;;3.90;3.50;;;;;;;;;;5114924;28;20570;-59
2022/08/09 06:41:31;;;;;;;5.43;3.10;;;;;;;;;;5114613;28;20854;-59
2022/08/09 06:43:58;;;;;;;3.93;3.63;;;;;;;;;;5114642;28;20457;-59
2022/08/09 06:46:25;;;;;;;3.40;3.20;;;;;;;;;;5114561;28;20809;-59
2022/08/09 06:48:52;;;;;;;4.23;3.53;;;;;;;;;;5114361;28;20470;-59
2022/08/09 06:51:19;;;;;;;5.80;3.80;;;;;;;;;;5114772;28;20794;-59
2022/08/09 06:53:46;;;;;;;8.90;4.23;;;;;;;;;;5114530;28;20452;-59
2022/08/09 06:56:14;;;;;;;4.10;3.70;;;;;;;;;;5114537;28;20536;-59
2022/08/09 06:58:41;;;;;;;6.70;3.73;;;;;;;;;;5114454;28;20879;-59
2022/08/09 07:01:08;;;;;;;11.47;5.30;;;;;;;;;;5114300;28;20452;-59
2022/08/09 07:03:35;;;;;;;16.40;4.53;;;;;;;;;;5114614;28;20449;-59
2022/08/09 07:06:02;;;;;;;5.80;3.93;;;;;;;;;;5114312;28;20445;-59
2022/08/09 07:08:29;;;;;;;7.43;3.40;;;;;;;;;;5113969;28;20452;-59
2022/08/09 07:10:56;;;;;;;4.50;3.97;;;;;;;;;;5114216;28;20452;-59
2022/08/09 07:13:25;;;;;;;9.17;4.60;;;;;;;;;;5114134;28;20492;-59
2022/08/09 07:15:52;;;;;;;5.13;3.40;;;;;;;;;;5114062;28;20481;-59
2022/08/09 07:18:18;;;;;;;4.37;3.37;;;;;;;;;;5114147;28;20469;-59
2022/08/09 07:20:45;;;;;;;4.77;3.70;;;;;;;;;;5114151;28;20456;-59
2022/08/09 07:23:12;;;;;;;5.03;3.13;;;;;;;;;;5113986;28;20902;-60
2022/08/09 07:25:39;;;;;;;5.50;3.10;;;;;;;;;;5114026;28;20819;-59
2022/08/09 07:28:06;;;;;;;5.07;4.53;;;;;;;;;;5113749;28;20469;-59
2022/08/09 07:30:35;;;;;;;3.80;3.50;;;;;;;;;;5114080;28;20537;-59
2022/08/09 07:33:01;;;;;;;5.07;3.57;;;;;;;;;;5113922;28;20556;-59
2022/08/09 07:35:28;;;;;;;4.97;3.53;;;;;;;;;;5113816;28;20589;-59
2022/08/09 07:37:55;;;;;;;4.80;3.17;;;;;;;;;;5113796;28;20449;-59
2022/08/09 07:40:22;;;;;;;3.73;3.43;;;;;;;;;;5113701;28;20450;-59
2022/08/09 07:42:50;;;;;;;4.37;3.50;;;;;;;;;;5113574;28;20446;-59
2022/08/09 07:45:20;;;;;;;4.03;3.43;;;;;;;;;;5113771;28;20449;-59
2022/08/09 07:47:48;;;;;;;3.67;3.47;;;;;;;;;;5112787;28;20474;-59
2022/08/09 07:50:15;;;;;;;3.87;2.90;;;;;;;;;;5113781;28;21096;-59
2022/08/09 07:52:42;;;;;;;3.50;3.30;;;;;;;;;;5113556;28;20541;-59
2022/08/09 07:55:09;;;;;;;3.90;3.60;;;;;;;;;;5113328;28;20445;-59
2022/08/09 07:57:36;;;;;;;6.10;3.87;;;;;;;;;;5113284;28;20966;-59
2022/08/09 08:00:04;;;;;;;3.20;3.00;;;;;;;;;;5113497;28;20526;-60
2022/08/09 08:02:31;;;;;;;4.60;3.70;;;;;;;;;;5113241;28;20925;-59
2022/08/09 08:04:59;;;;;;;4.90;3.87;;;;;;;;;;5113224;28;20963;-59
2022/08/09 08:07:26;;;;;;;5.63;3.77;;;;;;;;;;5113391;28;20804;-59
2022/08/09 08:09:53;;;;;;;6.07;3.63;;;;;;;;;;5113096;28;20992;-59
2022/08/09 08:12:20;;;;;;;4.40;3.53;;;;;;;;;;5113137;28;20933;-59
2022/08/09 08:14:47;;;;;;;5.57;3.10;;;;;;;;;;5113343;28;20854;-59
2022/08/09 08:17:14;;;;;;;4.07;3.67;;;;;;;;;;5113273;28;20496;-59
2022/08/09 08:19:41;;;;;;;4.40;2.90;;;;;;;;;;5113252;28;20450;-59
2022/08/09 08:22:09;;;;;;;4.87;2.60;;;;;;;;;;5113132;28;20456;-59
2022/08/09 08:24:36;;;;;;;3.33;3.00;;;;;;;;;;5112917;28;20937;-59
2022/08/09 08:27:03;;;;;;;6.60;3.10;;;;;;;;;;5113321;28;20445;-60
2022/08/09 08:29:30;;;;;;;6.33;3.30;;;;;;;;;;5113105;28;20487;-60
2022/08/09 08:31:57;;;;;;;3.47;2.87;;;;;;;;;;5113138;28;20456;-59
2022/08/09 08:34:24;;;;;;;2.90;2.70;;;;;;;;;;5112913;28;20456;-59
2022/08/09 08:36:51;;;;;;;4.60;2.70;;;;;;;;;;5112914;28;20456;-59
2022/08/09 08:39:19;;;;;;;2.90;2.70;;;;;;;;;;5113126;28;20532;-59
2022/08/09 08:41:46;;;;;;;3.63;3.10;;;;;;;;;;5113044;28;20449;-59
2022/08/09 08:44:13;;;;;;;4.77;2.80;;;;;;;;;;5112967;28;20445;-59
2022/08/09 08:46:41;;;;;;;2.80;2.60;;;;;;;;;;5112856;28;20441;-60
2022/08/09 08:49:08;;;;;;;4.60;3.77;;;;;;;;;;5112849;28;20484;-59
2022/08/09 08:51:36;;;;;;;6.80;3.60;;;;;;;;;;5112635;28;20549;-59
2022/08/09 08:54:06;;;;;;;8.13;3.60;;;;;;;;;;5112999;28;20450;-60
2022/08/09 08:56:35;;;;;;;5.00;2.97;;;;;;;;;;5112923;28;20855;-59
2022/08/09 08:59:03;;;;;;;2.87;2.67;;;;;;;;;;5114073;28;20456;-59
2022/08/09 09:01:30;;;;;;;3.57;2.40;;;;;;;;;;5116660;28;20441;-60
2022/08/09 09:03:58;;;;;;;4.50;2.77;;;;;;;;;;5116475;28;20940;-60
2022/08/09 09:06:25;;;;;;;4.07;3.03;;;;;;;;;;5116920;28;20445;-60
2022/08/09 09:08:52;;;;;;;3.30;2.67;;;;;;;;;;5116560;28;20474;-59
2022/08/09 09:11:19;;;;;;;2.90;2.40;;;;;;;;;;5116631;28;20441;-59
2022/08/09 09:13:48;;;;;;;7.13;2.70;;;;;;;;;;5116431;28;20933;-60
2022/08/09 09:16:15;;;;;;;2.37;2.10;;;;;;;;;;5116543;28;20801;-59
2022/08/09 09:18:42;;;;;;;2.83;2.63;;;;;;;;;;5116389;28;20449;-59
2022/08/09 09:21:09;;;;;;;3.07;2.67;;;;;;;;;;5116556;28;20536;-60
2022/08/09 09:23:43;;;;;;;3.13;2.70;;;;;;;;;;5116643;28;20448;-60
2022/08/09 09:26:10;;;;;;;2.63;2.43;;;;;;;;;;5116198;28;20502;-60
2022/08/09 09:28:37;;;;;;;5.13;2.43;;;;;;;;;;5116023;28;20469;-60
2022/08/09 09:31:12;;;;;;;2.90;2.60;;;;;;;;;;5116110;28;20540;-59
2022/08/09 09:33:39;;;;;;;3.90;2.90;;;;;;;;;;5116209;28;20441;-59
2022/08/09 09:36:08;;;;;;;3.10;2.40;;;;;;;;;;5116215;28;20442;-59
2022/08/09 09:38:45;;;;;;;2.67;2.47;;;;;;;;;;5116037;28;20959;-59
2022/08/09 09:41:12;;;;;;;4.23;2.70;;;;;;;;;;5115945;28;20947;-60
2022/08/09 09:43:39;;;;;;;3.50;2.47;;;;;;;;;;5115785;28;20468;-59
2022/08/09 09:46:08;;;;;;;2.30;2.20;;;;;;;;;;5115833;28;20963;-60
2022/08/09 09:48:35;;;;;;;3.20;2.47;;;;;;;;;;5115468;28;20478;-59
2022/08/09 09:51:02;;;;;;;3.57;2.80;;;;;;;;;;5115860;28;20536;-60
2022/08/09 09:53:29;;;;;;;3.00;2.43;;;;;;;;;;5115708;28;20445;-59
2022/08/09 09:55:58;;;;;;;5.80;2.57;;;;;;;;;;5115641;28;20937;-60
2022/08/09 09:58:25;;;;;;;3.30;3.00;;;;;;;;;;5115599;28;20446;-59
2022/08/09 10:00:53;;;;;;;4.50;2.77;;;;;;;;;;5115533;28;20483;-60
2022/08/09 10:03:35;;;;;;;3.50;3.00;;;;;;;;;;5115515;28;20457;-59
2022/08/09 10:06:03;;;;;;;3.50;2.60;;;;;;;;;;5115281;28;20540;-59
2022/08/09 10:08:30;;;;;;;2.60;2.40;;;;;;;;;;5115266;28;20846;-59
2022/08/09 10:10:57;;;;;;;3.13;2.50;;;;;;;;;;5114475;28;20540;-59
2022/08/09 10:13:24;;;;;;;2.37;2.00;;;;;;;;;;5115405;28;20446;-60
2022/08/09 10:15:52;;;;;;;2.70;2.33;;;;;;;;;;5115444;28;20452;-59
2022/08/09 10:18:19;;;;;;;5.73;2.80;;;;;;;;;;5115331;28;20449;-60
2022/08/09 10:20:46;;;;;;;2.43;2.23;;;;;;;;;;5115270;28;20476;-60
2022/08/09 10:23:15;;;;;;;2.73;2.53;;;;;;;;;;5115041;28;20449;-60
2022/08/09 10:25:43;;;;;;;2.70;2.50;;;;;;;;;;5115200;28;20457;-59
2022/08/09 10:28:11;;;;;;;3.23;2.60;;;;;;;;;;5115048;28;20454;-59
2022/08/09 10:30:38;;;;;;;3.63;2.40;;;;;;;;;;5114997;28;20810;-59
2022/08/09 10:33:05;;;;;;;8.03;2.50;;;;;;;;;;5115048;28;20482;-59
2022/08/09 10:35:32;;;;;;;2.67;2.57;;;;;;;;;;5114932;28;20445;-60
2022/08/09 10:38:00;;;;;;;7.73;2.80;;;;;;;;;;5115071;28;20796;-60
2022/08/09 10:40:29;;;;;;;3.10;2.90;;;;;;;;;;5114741;28;21024;-60
2022/08/09 10:42:56;;;;;;;3.33;3.13;;;;;;;;;;5114948;28;20928;-59
2022/08/09 10:45:23;;;;;;;5.80;2.93;;;;;;;;;;5114607;28;20498;-59
2022/08/09 10:47:58;;;;;;;3.00;2.40;;;;;;;;;;5114307;28;20984;-59
2022/08/09 10:51:05;;;;;;;10.30;2.90;;;;;;;;;;5114538;28;20476;-59
2022/08/09 10:53:20;;;;;;;2.93;2.73;;;;;;;;;;5114444;28;20442;-59
2022/08/09 10:55:48;;;;;;;2.60;2.40;;;;;;;;;;5114515;28;20460;-60
2022/08/09 10:58:30;;;;;;;2.37;2.17;;;;;;;;;;5114508;28;20484;-60
2022/08/09 11:00:57;;;;;;;3.10;2.90;;;;;;;;;;5114356;28;20943;-60
2022/08/09 11:03:24;;;;;;;3.27;2.80;;;;;;;;;;5114475;28;20445;-60
2022/08/09 11:06:10;;;;;;;2.87;2.67;;;;;;;;;;5114265;28;20441;-60
2022/08/09 11:08:41;;;;;;;2.97;2.33;;;;;;;;;;5114297;28;20445;-60
2022/08/09 11:11:09;;;;;;;4.90;3.20;;;;;;;;;;5114075;28;20437;-60
2022/08/09 11:13:37;;;;;;;9.13;4.00;;;;;;;;;;5114323;28;20450;-60
2022/08/09 11:16:18;;;;;;;4.00;2.73;;;;;;;;;;5114548;28;20502;-60
2022/08/09 11:18:45;;;;;;;3.60;2.43;;;;;;;;;;5114117;28;20452;-60
2022/08/09 11:21:27;;;;;;;2.70;2.50;;;;;;;;;;5113979;28;20446;-60
2022/08/09 11:24:01;;;;;;;4.03;2.60;;;;;;;;;;5113965;28;20437;-60
2022/08/09 11:26:40;;;;;;;2.90;2.50;;;;;;;;;;5114083;28;20457;-60
2022/08/09 11:29:08;;;;;;;3.33;2.70;;;;;;;;;;5113668;28;20505;-60
2022/08/09 11:31:46;;;;;;;2.20;2.10;;;;;;;;;;5113827;28;20593;-60
2022/08/09 11:34:30;;;;;;;2.53;2.40;;;;;;;;;;5113664;28;20449;-60
2022/08/09 11:36:59;;;;;;;2.70;2.50;;;;;;;;;;5113836;28;20457;-60
2022/08/09 11:39:26;;;;;;;3.90;2.37;;;;;;;;;;5113738;28;20453;-60
2022/08/09 11:41:55;;;;;;;2.13;2.00;;;;;;;;;;5113671;28;20446;-60
2022/08/09 11:44:43;;;;;;;3.90;2.33;;;;;;;;;;5113362;28;20445;-60
2022/08/09 11:47:10;;;;;;;2.30;2.10;;;;;;;;;;5113638;28;20446;-60
2022/08/09 11:49:56;;;;;;;2.70;2.33;;;;;;;;;;5113589;28;20825;-60
2022/08/09 11:52:26;;;;;;;3.00;2.30;;;;;;;;;;5113437;28;20449;-60
2022/08/09 11:55:11;;;;;;;2.57;2.37;;;;;;;;;;5113285;28;20430;-60
2022/08/09 11:57:40;;;;;;;2.67;2.47;;;;;;;;;;5113193;28;20446;-60
2022/08/09 12:00:09;;;;;;;2.50;2.30;;;;;;;;;;5113357;28;20452;-60
2022/08/09 12:02:38;;;;;;;2.20;2.10;;;;;;;;;;5113239;28;20446;-60
2022/08/09 12:05:06;;;;;;;2.87;2.67;;;;;;;;;;5113278;28;20533;-60
2022/08/09 12:07:33;;;;;;;3.30;2.30;;;;;;;;;;5113147;28;20450;-60
2022/08/09 12:10:01;;;;;;;2.30;2.00;;;;;;;;;;5113402;28;21107;-61
2022/08/09 12:12:28;;;;;;;4.93;2.10;;;;;;;;;;5113425;28;20453;-61
2022/08/09 12:14:57;;;;;;;3.50;2.00;;;;;;;;;;5113266;28;20452;-60
2022/08/09 12:17:24;;;;;;;2.47;2.27;;;;;;;;;;5113225;28;20477;-61
2022/08/09 12:19:51;;;;;;;2.50;1.80;;;;;;;;;;5113082;28;20460;-61
2022/08/09 12:22:19;;;;;;;3.10;2.80;;;;;;;;;;5113104;28;20944;-60
2022/08/09 12:24:46;;;;;;;3.20;2.73;;;;;;;;;;5113281;28;20449;-60
2022/08/09 12:27:19;;;;;;;2.47;2.37;;;;;;;;;;5113216;28;20528;-61
2022/08/09 12:29:53;;;;;;;2.57;2.33;;;;;;;;;;5113172;28;20986;-60
2022/08/09 12:32:25;;;;;;;2.57;2.30;;;;;;;;;;5112981;28;20523;-61
2022/08/09 12:34:52;;;;;;;2.77;2.57;;;;;;;;;;5116126;28;20582;-60
2022/08/09 12:37:31;;;;;;;2.90;2.40;;;;;;;;;;5117390;28;20453;-60
2022/08/09 12:40:01;;;;;;;3.27;2.80;;;;;;;;;;5117284;28;20944;-60
2022/08/09 12:42:28;;;;;;;2.47;2.27;;;;;;;;;;5117073;28;20450;-60
2022/08/09 12:44:55;;;;;;;4.03;2.80;;;;;;;;;;5116855;28;20441;-60
2022/08/09 12:47:24;;;;;;;3.30;2.73;;;;;;;;;;5116934;28;20801;-60
2022/08/09 12:52:38;;;;;;;2.50;2.30;;;;;;;;;;5116553;28;20457;-60
2022/08/09 12:55:06;;;;;;;3.80;2.50;;;;;;;;;;5116718;28;20528;-61
2022/08/09 12:57:38;;;;;;;3.20;2.70;;;;;;;;;;5116634;28;20457;-60
2022/08/09 13:00:13;;;;;;;2.50;2.30;;;;;;;;;;5116859;28;20493;-60
2022/08/09 13:02:49;;;;;;;3.53;2.60;;;;;;;;;;5116756;28;21057;-60
2022/08/09 13:05:16;;;;;;;4.47;2.70;;;;;;;;;;5116525;28;20452;-60
2022/08/09 13:07:43;;;;;;;2.60;2.50;;;;;;;;;;5116544;28;20532;-60
2022/08/09 13:10:10;;;;;;;5.30;2.50;;;;;;;;;;5116519;28;20520;-61
2022/08/09 13:12:47;;;;;;;2.40;2.20;;;;;;;;;;5116678;28;20533;-61
2022/08/09 13:15:14;;;;;;;2.50;2.20;;;;;;;;;;5116627;28;20445;-60
2022/08/09 13:17:41;;;;;;;2.20;2.10;;;;;;;;;;5116156;28;20856;-60
2022/08/09 13:20:10;;;;;;;5.10;2.17;;;;;;;;;;5116359;28;20444;-60
2022/08/09 13:22:47;;;;;;;2.47;1.97;;;;;;;;;;5116597;28;20441;-60
2022/08/09 13:25:14;;;;;;;2.40;2.30;;;;;;;;;;5116428;28;20453;-60
2022/08/09 13:27:42;;;;;;;3.30;1.90;;;;;;;;;;5116328;28;20442;-60
2022/08/09 13:30:10;;;;;;;6.10;2.37;;;;;;;;;;5116050;28;20473;-61
2022/08/09 13:32:44;;;;;;;4.07;2.70;;;;;;;;;;5116070;28;20445;-61
2022/08/09 13:35:13;;;;;;;2.20;2.10;;;;;;;;;;5116053;28;20993;-60
2022/08/09 13:37:40;;;;;;;2.80;2.60;;;;;;;;;;5116153;28;20468;-60
2022/08/09 13:40:08;;;;;;;3.43;2.30;;;;;;;;;;5116027;28;20541;-60
2022/08/09 13:42:35;;;;;;;2.30;2.10;;;;;;;;;;5115960;28;20442;-61
2022/08/09 13:45:03;;;;;;;3.47;2.20;;;;;;;;;;5114912;28;20450;-60
2022/08/09 13:47:31;;;;;;;5.50;2.00;;;;;;;;;;5115448;28;20988;-60
2022/08/09 13:49:58;;;;;;;3.50;2.70;;;;;;;;;;5115971;28;20581;-61
2022/08/09 13:52:27;;;;;;;2.57;2.37;;;;;;;;;;5115768;28;20958;-61
2022/08/09 13:54:54;;;;;;;2.30;2.10;;;;;;;;;;5115675;28;20457;-60
2022/08/09 13:57:21;;;;;;;2.33;2.20;;;;;;;;;;5115616;28;20536;-60
2022/08/09 13:59:48;;;;;;;2.57;2.20;;;;;;;;;;5115536;28;20544;-61
2022/08/09 14:02:15;;;;;;;2.50;2.23;;;;;;;;;;5115834;28;20473;-60
2022/08/09 14:04:42;;;;;;;4.40;2.80;;;;;;;;;;5115683;27;21006;-61
2022/08/09 14:07:09;;;;;;;2.60;2.40;;;;;;;;;;5115620;28;20450;-60
2022/08/09 14:09:37;;;;;;;2.57;2.40;;;;;;;;;;5115487;28;20541;-60
2022/08/09 14:12:05;;;;;;;2.30;2.13;;;;;;;;;;5115569;28;20928;-60
2022/08/09 14:14:32;;;;;;;2.33;2.13;;;;;;;;;;5115101;28;20537;-60
2022/08/09 14:16:59;;;;;;;3.50;2.10;;;;;;;;;;5115369;28;20541;-61
2022/08/09 14:19:26;;;;;;;2.23;2.03;;;;;;;;;;5115459;28;20791;-61
2022/08/09 14:21:53;;;;;;;5.43;2.20;;;;;;;;;;5115323;28;20804;-60
2022/08/09 14:24:20;;;;;;;2.10;1.90;;;;;;;;;;5115237;28;20801;-61
2022/08/09 14:26:49;;;;;;;2.83;2.63;;;;;;;;;;5114931;28;20951;-60
2022/08/09 14:29:18;;;;;;;2.20;2.00;;;;;;;;;;5115237;28;20441;-60
2022/08/09 14:31:45;;;;;;;4.30;2.57;;;;;;;;;;5115085;28;20519;-60
2022/08/09 14:34:12;;;;;;;5.27;2.63;;;;;;;;;;5114995;28;20450;-59
2022/08/09 14:36:39;;;;;;;3.60;3.30;;;;;;;;;;5114962;28;20450;-59
2022/08/09 14:39:07;;;;;;;2.27;2.07;;;;;;;;;;5114947;28;20866;-59
2022/08/09 14:41:33;;;;;;;2.63;1.97;;;;;;;;;;5114931;28;20540;-60
2022/08/09 14:44:02;;;;;;;1.90;1.77;;;;;;;;;;5114909;28;20808;-60
2022/08/09 14:46:29;;;;;;;4.53;2.27;;;;;;;;;;5114826;28;20477;-60
2022/08/09 14:48:56;;;;;;;2.90;2.00;;;;;;;;;;5114456;28;21006;-59
2022/08/09 14:51:23;;;;;;;2.70;1.90;;;;;;;;;;5114474;28;20481;-59
2022/08/09 14:53:50;;;;;;;2.10;2.00;;;;;;;;;;5114481;28;20543;-60